Time,TemperatureF,DewpointF,PressureIn,WindDirection,WindDirectionDegrees,WindSpeedMPH,WindSpeedGustMPH,Humidity,HourlyPrecipIn,Conditions,Clouds,dailyrainin,SoftwareType,DateUTC
2013-09-15 00:00:00,58.0,-99.9,29.77,North,350,11.0,11.0,-999,-99.99,,,-99.99,,2013-09-15 07:00:00,
2013-09-15 00:22:00,58.0,-99.9,29.77,North,350,11.0,11.0,-999,-99.99,,,-99.99,,2013-09-15 07:22:00,
2013-09-15 00:33:00,58.0,-99.9,29.77,North,350,11.0,11.0,-999,-99.99,,,-99.99,,2013-09-15 07:33:00,
2013-09-15 00:42:00,58.0,-99.9,29.77,North,350,11.0,11.0,-999,-99.99,,,-99.99,,2013-09-15 07:42:00,
2013-09-15 00:53:00,58.0,-99.9,29.77,North,350,11.0,11.0,-999,-99.99,,,-99.99,,2013-09-15 07:53:00,
2013-09-15 01:00:00,57.0,-99.9,29.77,NNW,340,11.0,13.0,-999,-99.99,,,-99.99,,2013-09-15 08:00:00,
2013-09-15 01:22:00,57.0,-99.9,29.77,NNW,340,11.0,13.0,-999,-99.99,,,-99.99,,2013-09-15 08:22:00,
2013-09-15 01:32:00,57.0,-99.9,29.77,NNW,340,11.0,13.0,-999,-99.99,,,-99.99,,2013-09-15 08:32:00,
2013-09-15 01:43:00,57.0,-99.9,29.77,NNW,340,11.0,13.0,-999,-99.99,,,-99.99,,2013-09-15 08:43:00,
2013-09-15 01:52:00,57.0,-99.9,29.77,NNW,340,11.0,13.0,-999,-99.99,,,-99.99,,2013-09-15 08:52:00,
2013-09-15 02:00:00,57.0,-99.9,29.76,North,350,11.0,11.0,-999,-99.99,,,-99.99,,2013-09-15 09:00:00,
2013-09-15 02:22:00,57.0,-99.9,29.76,North,350,11.0,11.0,-999,-99.99,,,-99.99,,2013-09-15 09:22:00,
2013-09-15 02:33:00,57.0,-99.9,29.76,North,350,11.0,11.0,-999,-99.99,,,-99.99,,2013-09-15 09:33:00,
2013-09-15 02:44:00,57.0,-99.9,29.76,North,350,11.0,11.0,-999,-99.99,,,-99.99,,2013-09-15 09:44:00,
2013-09-15 02:54:00,57.0,-99.9,29.76,North,350,11.0,11.0,-999,-99.99,,,-99.99,,2013-09-15 09:54:00,
2013-09-15 03:00:00,57.0,-99.9,29.76,North,350,10.0,10.0,-999,-99.99,,,-99.99,,2013-09-15 10:00:00,
2013-09-15 03:23:00,57.0,-99.9,29.76,North,350,10.0,10.0,-999,-99.99,,,-99.99,,2013-09-15 10:23:00,
2013-09-15 03:32:00,57.0,-99.9,29.76,North,350,10.0,10.0,-999,-99.99,,,-99.99,,2013-09-15 10:32:00,
2013-09-15 03:43:00,57.0,-99.9,29.76,North,350,10.0,10.0,-999,-99.99,,,-99.99,,2013-09-15 10:43:00,
2013-09-15 03:53:00,57.0,-99.9,29.76,North,350,10.0,10.0,-999,-99.99,,,-99.99,,2013-09-15 10:53:00,
2013-09-15 04:00:00,58.0,-99.9,29.76,NNW,340,10.0,11.0,-999,-99.99,,,-99.99,,2013-09-15 11:00:00,
2013-09-15 04:22:00,58.0,-99.9,29.76,NNW,340,10.0,11.0,-999,-99.99,,,-99.99,,2013-09-15 11:22:00,
2013-09-15 04:33:00,58.0,-99.9,29.76,NNW,340,10.0,11.0,-999,-99.99,,,-99.99,,2013-09-15 11:33:00,
2013-09-15 04:42:00,58.0,-99.9,29.76,NNW,340,10.0,11.0,-999,-99.99,,,-99.99,,2013-09-15 11:42:00,
2013-09-15 04:52:00,58.0,-99.9,29.76,NNW,340,10.0,11.0,-999,-99.99,,,-99.99,,2013-09-15 11:52:00,
2013-09-15 05:00:00,58.0,-99.9,29.75,North,360,11.0,13.0,-999,-99.99,,,-99.99,,2013-09-15 12:00:00,
2013-09-15 05:22:00,58.0,-99.9,29.75,North,360,11.0,13.0,-999,-99.99,,,-99.99,,2013-09-15 12:22:00,
2013-09-15 05:32:00,58.0,-99.9,29.75,North,360,11.0,13.0,-999,-99.99,,,-99.99,,2013-09-15 12:32:00,
2013-09-15 05:42:00,58.0,-99.9,29.75,North,360,11.0,13.0,-999,-99.99,,,-99.99,,2013-09-15 12:42:00,
2013-09-15 05:52:00,58.0,-99.9,29.75,North,360,11.0,13.0,-999,-99.99,,,-99.99,,2013-09-15 12:52:00,
2013-09-15 06:00:00,58.0,-99.9,29.74,North,360,11.0,13.0,-999,-99.99,,,-99.99,,2013-09-15 13:00:00,
2013-09-15 06:22:00,58.0,-99.9,29.74,North,360,11.0,13.0,-999,-99.99,,,-99.99,,2013-09-15 13:22:00,
2013-09-15 06:32:00,58.0,-99.9,29.74,North,360,11.0,13.0,-999,-99.99,,,-99.99,,2013-09-15 13:32:00,
2013-09-15 06:42:00,58.0,-99.9,29.74,North,360,11.0,13.0,-999,-99.99,,,-99.99,,2013-09-15 13:42:00,
2013-09-15 06:53:00,58.0,-99.9,29.74,North,360,11.0,13.0,-999,-99.99,,,-99.99,,2013-09-15 13:53:00,
2013-09-15 07:22:00,58.0,-99.9,29.73,North,360,13.0,14.0,-999,-99.99,,,-99.99,,2013-09-15 14:22:00,
2013-09-15 12:00:00,59.0,-99.9,29.77,NNW,340,5.0,6.0,-999,-99.99,,,-99.99,,2013-09-15 19:00:00,
2013-09-15 12:22:00,59.0,-99.9,29.77,NNW,340,5.0,6.0,-999,-99.99,,,-99.99,,2013-09-15 19:22:00,
2013-09-15 12:32:00,59.0,-99.9,29.77,NNW,340,5.0,6.0,-999,-99.99,,,-99.99,,2013-09-15 19:32:00,
2013-09-15 12:42:00,59.0,-99.9,29.77,NNW,340,5.0,6.0,-999,-99.99,,,-99.99,,2013-09-15 19:42:00,
2013-09-15 12:52:00,59.0,-99.9,29.77,NNW,340,5.0,6.0,-999,-99.99,,,-99.99,,2013-09-15 19:52:00,
2013-09-15 13:00:00,59.0,-99.9,29.77,NNW,340,6.0,6.0,-999,-99.99,,,-99.99,,2013-09-15 20:00:00,
2013-09-15 13:22:00,59.0,-99.9,29.77,NNW,340,6.0,6.0,-999,-99.99,,,-99.99,,2013-09-15 20:22:00,
2013-09-15 13:32:00,59.0,-99.9,29.77,NNW,340,6.0,6.0,-999,-99.99,,,-99.99,,2013-09-15 20:32:00,
2013-09-15 13:42:00,59.0,-99.9,29.77,NNW,340,6.0,6.0,-999,-99.99,,,-99.99,,2013-09-15 20:42:00,
2013-09-15 13:53:00,59.0,-99.9,29.77,NNW,340,6.0,6.0,-999,-99.99,,,-99.99,,2013-09-15 20:53:00,
2013-09-15 14:00:00,59.0,-99.9,29.79,SW,230,3.0,3.0,-999,-99.99,,,-99.99,,2013-09-15 21:00:00,
2013-09-15 14:22:00,59.0,-99.9,29.79,SW,230,3.0,3.0,-999,-99.99,,,-99.99,,2013-09-15 21:22:00,
2013-09-15 14:34:00,59.0,-99.9,29.79,SW,230,3.0,3.0,-999,-99.99,,,-99.99,,2013-09-15 21:34:00,
2013-09-15 14:44:00,59.0,-99.9,29.79,SW,230,3.0,3.0,-999,-99.99,,,-99.99,,2013-09-15 21:44:00,
2013-09-15 14:54:00,59.0,-99.9,29.79,SW,230,3.0,3.0,-999,-99.99,,,-99.99,,2013-09-15 21:54:00,
2013-09-15 15:00:00,59.0,-99.9,29.80,SW,230,3.0,3.0,-999,-99.99,,,-99.99,,2013-09-15 22:00:00,
2013-09-15 15:44:00,59.0,-99.9,29.80,SW,230,3.0,3.0,-999,-99.99,,,-99.99,,2013-09-15 22:44:00,
2013-09-15 15:54:00,59.0,-99.9,29.80,SW,230,3.0,3.0,-999,-99.99,,,-99.99,,2013-09-15 22:54:00,
2013-09-15 16:00:00,59.0,-99.9,29.80,SW,230,6.0,7.0,-999,-99.99,,,-99.99,,2013-09-15 23:00:00,
2013-09-15 16:22:00,59.0,-99.9,29.80,SW,230,6.0,7.0,-999,-99.99,,,-99.99,,2013-09-15 23:22:00,
2013-09-15 16:34:00,59.0,-99.9,29.80,SW,230,6.0,7.0,-999,-99.99,,,-99.99,,2013-09-15 23:34:00,
2013-09-15 16:42:00,59.0,-99.9,29.80,SW,230,6.0,7.0,-999,-99.99,,,-99.99,,2013-09-15 23:42:00,
2013-09-15 16:53:00,59.0,-99.9,29.80,SW,230,6.0,7.0,-999,-99.99,,,-99.99,,2013-09-15 23:53:00,
2013-09-15 17:00:00,60.0,-99.9,29.80,SSW,200,5.0,6.0,-999,-99.99,,,-99.99,,2013-09-16 00:00:00,
2013-09-15 17:22:00,60.0,-99.9,29.80,SSW,200,5.0,6.0,-999,-99.99,,,-99.99,,2013-09-16 00:22:00,
2013-09-15 17:32:00,60.0,-99.9,29.80,SSW,200,5.0,6.0,-999,-99.99,,,-99.99,,2013-09-16 00:32:00,
2013-09-15 17:42:00,60.0,-99.9,29.80,SSW,200,5.0,6.0,-999,-99.99,,,-99.99,,2013-09-16 00:42:00,
2013-09-15 17:52:00,60.0,-99.9,29.80,SSW,200,5.0,6.0,-999,-99.99,,,-99.99,,2013-09-16 00:52:00,
2013-09-15 18:00:00,59.0,-99.9,29.81,South,190,5.0,6.0,-999,-99.99,,,-99.99,,2013-09-16 01:00:00,
2013-09-15 18:22:00,59.0,-99.9,29.81,South,190,5.0,6.0,-999,-99.99,,,-99.99,,2013-09-16 01:22:00,
2013-09-15 18:32:00,59.0,-99.9,29.81,South,190,5.0,6.0,-999,-99.99,,,-99.99,,2013-09-16 01:32:00,
2013-09-15 18:42:00,59.0,-99.9,29.81,South,190,5.0,6.0,-999,-99.99,,,-99.99,,2013-09-16 01:42:00,
2013-09-15 18:52:00,59.0,-99.9,29.81,South,190,5.0,6.0,-999,-99.99,,,-99.99,,2013-09-16 01:52:00,
2013-09-15 19:00:00,59.0,-99.9,29.81,ESE,120,6.0,7.0,-999,-99.99,,,-99.99,,2013-09-16 02:00:00,
2013-09-15 19:22:00,59.0,-99.9,29.81,ESE,120,6.0,7.0,-999,-99.99,,,-99.99,,2013-09-16 02:22:00,
2013-09-15 19:32:00,59.0,-99.9,29.81,ESE,120,6.0,7.0,-999,-99.99,,,-99.99,,2013-09-16 02:32:00,
2013-09-15 19:42:00,59.0,-99.9,29.81,ESE,120,6.0,7.0,-999,-99.99,,,-99.99,,2013-09-16 02:42:00,
2013-09-15 19:52:00,59.0,-99.9,29.81,ESE,120,6.0,7.0,-999,-99.99,,,-99.99,,2013-09-16 02:52:00,
2013-09-15 20:00:00,59.0,-99.9,29.81,SSE,150,7.0,8.0,-999,-99.99,,,-99.99,,2013-09-16 03:00:00,
2013-09-15 20:23:00,59.0,-99.9,29.81,SSE,150,7.0,8.0,-999,-99.99,,,-99.99,,2013-09-16 03:23:00,
2013-09-15 20:34:00,59.0,-99.9,29.81,SSE,150,7.0,8.0,-999,-99.99,,,-99.99,,2013-09-16 03:34:00,
2013-09-15 20:45:00,59.0,-99.9,29.81,SSE,150,7.0,8.0,-999,-99.99,,,-99.99,,2013-09-16 03:45:00,
2013-09-15 20:55:00,59.0,-99.9,29.81,SSE,150,7.0,8.0,-999,-99.99,,,-99.99,,2013-09-16 03:55:00,
2013-09-15 21:00:00,60.0,-99.9,29.82,SSE,160,8.0,9.0,-999,-99.99,,,-99.99,,2013-09-16 04:00:00,
2013-09-15 21:43:00,60.0,-99.9,29.82,SSE,160,8.0,9.0,-999,-99.99,,,-99.99,,2013-09-16 04:43:00,
2013-09-15 21:54:00,60.0,-99.9,29.82,SSE,160,8.0,9.0,-999,-99.99,,,-99.99,,2013-09-16 04:54:00,
2013-09-15 22:00:00,60.0,-99.9,29.83,South,170,10.0,13.0,-999,-99.99,,,-99.99,,2013-09-16 05:00:00,
2013-09-15 22:22:00,60.0,-99.9,29.83,South,170,10.0,13.0,-999,-99.99,,,-99.99,,2013-09-16 05:22:00,
2013-09-15 22:34:00,60.0,-99.9,29.83,South,170,10.0,13.0,-999,-99.99,,,-99.99,,2013-09-16 05:34:00,
2013-09-15 22:44:00,60.0,-99.9,29.83,South,170,10.0,13.0,-999,-99.99,,,-99.99,,2013-09-16 05:44:00,
2013-09-15 22:53:00,60.0,-99.9,29.83,South,170,10.0,13.0,-999,-99.99,,,-99.99,,2013-09-16 05:53:00,
2013-09-15 23:00:00,59.0,-99.9,29.82,SSW,210,8.0,8.0,-999,-99.99,,,-99.99,,2013-09-16 06:00:00,
2013-09-15 23:22:00,59.0,-99.9,29.82,SSW,210,8.0,8.0,-999,-99.99,,,-99.99,,2013-09-16 06:22:00,
2013-09-15 23:32:00,59.0,-99.9,29.82,SSW,210,8.0,8.0,-999,-99.99,,,-99.99,,2013-09-16 06:32:00,
2013-09-15 23:43:00,59.0,-99.9,29.82,SSW,210,8.0,8.0,-999,-99.99,,,-99.99,,2013-09-16 06:43:00,
2013-09-15 23:52:00,59.0,-99.9,29.82,SSW,210,8.0,8.0,-999,-99.99,,,-99.99,,2013-09-16 06:52:00,